createdAt,value
2018-11-21T00:00:37.213Z,-1.80
2018-11-21T00:03:06.833Z,-1.90
2018-11-21T00:05:36.379Z,-1.70
2018-11-21T00:08:06.191Z,-1.70
2018-11-21T00:10:35.959Z,-1.60
2018-11-21T00:13:05.998Z,-1.60
2018-11-21T00:15:35.626Z,-1.70
2018-11-21T00:18:06.040Z,-1.70
2018-11-21T00:20:35.946Z,-1.70
2018-11-21T00:23:05.941Z,-1.60
2018-11-21T00:25:35.761Z,-1.50
2018-11-21T00:28:05.667Z,-1.20
2018-11-21T00:30:35.507Z,-0.90
2018-11-21T00:33:05.121Z,-0.80
2018-11-21T00:35:34.828Z,-0.70
2018-11-21T00:38:04.433Z,-0.70
2018-11-21T00:40:34.154Z,-0.70
2018-11-21T00:43:03.814Z,-0.70
2018-11-21T00:45:33.486Z,-0.80
2018-11-21T00:48:03.339Z,-0.90
2018-11-21T00:50:32.943Z,-0.90
2018-11-21T00:53:02.627Z,-0.80
2018-11-21T00:55:32.209Z,-0.90
2018-11-21T00:58:02.289Z,-1.00
2018-11-21T01:00:31.921Z,-1.20
2018-11-21T01:03:01.554Z,-1.20
2018-11-21T01:05:31.162Z,-1.30
2018-11-21T01:08:00.826Z,-1.40
2018-11-21T01:10:30.471Z,-1.60
2018-11-21T01:13:00.085Z,-1.70
2018-11-21T01:15:29.958Z,-1.80
2018-11-21T01:17:59.527Z,-1.90
2018-11-21T01:20:29.126Z,-2.00
2018-11-21T01:22:58.844Z,-2.10
2018-11-21T01:25:28.586Z,-2.20
2018-11-21T01:27:58.245Z,-2.20
2018-11-21T01:30:28.019Z,-2.10
2018-11-21T01:32:57.672Z,-2.10
2018-11-21T01:35:27.301Z,-1.90
2018-11-21T01:37:56.825Z,-1.40
2018-11-21T01:40:26.500Z,-1.40
2018-11-21T01:42:56.249Z,-1.40
2018-11-21T01:45:25.963Z,-1.40
2018-11-21T01:47:55.624Z,-1.50
2018-11-21T01:50:25.180Z,-1.60
2018-11-21T01:52:54.807Z,-1.80
2018-11-21T01:55:24.324Z,-1.80
2018-11-21T01:57:53.975Z,-1.90
2018-11-21T02:00:23.551Z,-2.00
2018-11-21T02:02:53.205Z,-2.20
2018-11-21T02:05:22.805Z,-2.30
2018-11-21T02:07:52.689Z,-2.40
2018-11-21T02:10:22.332Z,-2.40
2018-11-21T02:12:51.974Z,-2.50
2018-11-21T02:15:21.614Z,-2.40
2018-11-21T02:17:51.366Z,-2.20
2018-11-21T02:20:20.990Z,-2.30
2018-11-21T02:22:50.617Z,-2.30
2018-11-21T02:25:20.277Z,-2.50
2018-11-21T02:27:49.933Z,-2.60
2018-11-21T02:30:19.686Z,-2.60
2018-11-21T02:32:49.402Z,-2.50
2018-11-21T02:35:19.031Z,-2.60
2018-11-21T02:37:48.690Z,-2.70
2018-11-21T02:40:18.413Z,-2.80
2018-11-21T02:42:48.064Z,-2.80
2018-11-21T02:45:17.670Z,-2.90
2018-11-21T02:47:47.389Z,-2.90
2018-11-21T02:50:17.012Z,-3.00
2018-11-21T02:52:46.618Z,-2.90
2018-11-21T02:55:16.175Z,-2.80
2018-11-21T02:57:45.973Z,-2.90
2018-11-21T03:00:26.377Z,-2.90
2018-11-21T03:02:56.089Z,-2.80
2018-11-21T03:05:25.663Z,-2.80
2018-11-21T03:07:56.618Z,-2.80
2018-11-21T03:10:26.766Z,-2.90
2018-11-21T03:12:56.743Z,-2.80
2018-11-21T03:15:26.423Z,-2.80
2018-11-21T03:17:56.203Z,-2.70
2018-11-21T03:20:25.820Z,-2.70
2018-11-21T03:22:55.453Z,-2.80
2018-11-21T03:25:25.335Z,-2.80
2018-11-21T03:27:54.989Z,-2.80
2018-11-21T03:30:24.700Z,-2.90
2018-11-21T03:32:54.477Z,-2.90
2018-11-21T03:35:24.266Z,-3.00
2018-11-21T03:37:53.991Z,-3.00
2018-11-21T03:40:23.651Z,-3.10
2018-11-21T03:42:53.292Z,-3.20
2018-11-21T03:45:22.880Z,-3.00
2018-11-21T03:47:52.475Z,-2.90
2018-11-21T03:50:23.910Z,-2.80
2018-11-21T03:52:53.535Z,-2.70
2018-11-21T03:55:23.108Z,-2.80
2018-11-21T03:57:53.034Z,-2.80
2018-11-21T04:00:22.690Z,-2.80
2018-11-21T04:02:52.519Z,-2.80
2018-11-21T04:05:22.175Z,-2.80
2018-11-21T04:07:51.845Z,-2.80
2018-11-21T04:10:21.481Z,-2.70
2018-11-21T04:12:51.151Z,-2.80
2018-11-21T04:15:20.841Z,-2.70
2018-11-21T04:17:50.668Z,-2.70
2018-11-21T04:20:20.383Z,-2.70
2018-11-21T04:22:50.225Z,-2.80
2018-11-21T04:25:19.858Z,-3.00
2018-11-21T04:27:49.411Z,-3.10
2018-11-21T04:30:19.071Z,-3.20
2018-11-21T04:32:48.663Z,-3.30
2018-11-21T04:35:18.282Z,-3.40
2018-11-21T04:37:47.954Z,-3.50
2018-11-21T04:40:17.871Z,-3.50
2018-11-21T04:42:47.524Z,-3.60
2018-11-21T04:45:17.075Z,-3.60
2018-11-21T04:47:46.820Z,-3.60
2018-11-21T04:50:16.408Z,-3.60
2018-11-21T04:52:46.023Z,-3.60
2018-11-21T04:55:15.762Z,-3.60
2018-11-21T04:57:45.775Z,-3.70
2018-11-21T05:00:15.679Z,-3.70
2018-11-21T05:02:45.534Z,-3.70
2018-11-21T05:05:15.258Z,-3.80
2018-11-21T05:07:44.941Z,-3.70
2018-11-21T05:10:14.603Z,-3.70
2018-11-21T05:12:44.209Z,-3.60
2018-11-21T05:15:16.326Z,-3.60
2018-11-21T05:17:46.079Z,-3.50
2018-11-21T05:20:15.680Z,-3.20
2018-11-21T05:22:45.276Z,-3.20
2018-11-21T05:25:14.970Z,-3.10
2018-11-21T05:27:44.553Z,-3.00
2018-11-21T05:30:14.375Z,-2.90
2018-11-21T05:32:44.255Z,-2.80
2018-11-21T05:35:13.849Z,-2.70
2018-11-21T05:37:43.514Z,-2.70
2018-11-21T05:40:13.173Z,-2.70
2018-11-21T05:42:42.779Z,-2.80
2018-11-21T05:45:12.663Z,-2.80
2018-11-21T05:47:42.328Z,-2.90
2018-11-21T05:50:13.314Z,-2.90
2018-11-21T05:52:42.916Z,-2.90
2018-11-21T05:55:12.555Z,-2.80
2018-11-21T05:57:42.098Z,-2.70
2018-11-21T06:00:13.448Z,-2.60
2018-11-21T06:02:43.119Z,-2.60
2018-11-21T06:05:13.201Z,-2.50
2018-11-21T06:07:42.836Z,-2.50
2018-11-21T06:10:14.045Z,-2.50
2018-11-21T06:12:44.279Z,-2.50
2018-11-21T06:15:14.012Z,-2.40
2018-11-21T06:17:48.033Z,-2.30
2018-11-21T06:20:14.629Z,-2.30
2018-11-21T06:22:45.726Z,-2.20
2018-11-21T06:25:15.428Z,-2.10
2018-11-21T06:27:45.147Z,-2.20
2018-11-21T06:30:15.410Z,-2.20
2018-11-21T06:32:45.273Z,-2.10
2018-11-21T06:35:14.886Z,-1.80
2018-11-21T06:37:44.467Z,-1.70
2018-11-21T06:40:15.496Z,-1.70
2018-11-21T06:42:58.507Z,-1.80
2018-11-21T06:45:29.354Z,-1.90
2018-11-21T06:47:58.944Z,-1.90
2018-11-21T06:50:28.610Z,-2.00
2018-11-21T06:52:58.929Z,-2.00
2018-11-21T06:55:28.708Z,-2.00
2018-11-21T06:57:58.354Z,-2.00
2018-11-21T07:00:28.021Z,-2.00
2018-11-21T07:02:57.985Z,-2.00
2018-11-21T07:05:27.752Z,-2.00
2018-11-21T07:08:00.622Z,-1.90
2018-11-21T07:10:30.918Z,-1.80
2018-11-21T07:13:00.625Z,-1.80
2018-11-21T07:15:30.248Z,-1.80
2018-11-21T07:17:59.914Z,-1.80
2018-11-21T07:20:29.589Z,-1.80
2018-11-21T07:22:59.332Z,-1.70
2018-11-21T07:25:29.068Z,-1.70
2018-11-21T07:27:58.707Z,-1.70
2018-11-21T07:30:28.434Z,-1.60
2018-11-21T07:32:58.118Z,-1.60
2018-11-21T07:35:27.751Z,-1.50
2018-11-21T07:37:57.452Z,-1.40
2018-11-21T07:40:27.044Z,-1.30
2018-11-21T07:42:56.622Z,-1.10
2018-11-21T07:45:26.270Z,-0.80
2018-11-21T07:47:55.905Z,-0.60
2018-11-21T07:50:25.575Z,-0.40
2018-11-21T07:52:55.267Z,-0.40
2018-11-21T07:55:24.877Z,-0.40
2018-11-21T07:57:56.134Z,-0.30
2018-11-21T08:01:05.420Z,-0.20
2018-11-21T08:03:40.339Z,-0.10
2018-11-21T08:06:18.367Z,0.10
2018-11-21T08:09:07.068Z,0.20
2018-11-21T08:12:01.590Z,0.40
2018-11-21T08:14:53.231Z,0.30
2018-11-21T08:17:47.631Z,0.20
2018-11-21T08:20:34.683Z,0.50
2018-11-21T08:23:21.713Z,0.50
2018-11-21T08:26:16.778Z,0.60
2018-11-21T08:28:46.428Z,0.70
2018-11-21T08:31:16.150Z,0.80
2018-11-21T08:33:45.795Z,0.80
2018-11-21T08:36:15.458Z,0.80
2018-11-21T08:38:45.121Z,1.10
2018-11-21T08:41:15.131Z,1.40
2018-11-21T08:43:44.809Z,1.60
2018-11-21T08:46:14.443Z,1.50
2018-11-21T08:48:44.088Z,1.60
2018-11-21T08:51:13.923Z,1.70
2018-11-21T08:53:43.618Z,1.80
2018-11-21T08:56:13.563Z,1.90
2018-11-21T08:58:43.135Z,2.00
2018-11-21T09:01:12.753Z,2.30
2018-11-21T09:03:42.604Z,2.40
2018-11-21T09:06:12.279Z,2.20
2018-11-21T09:08:41.857Z,2.30
2018-11-21T09:11:11.979Z,2.20
2018-11-21T09:13:41.584Z,2.30
2018-11-21T09:16:11.202Z,2.40
2018-11-21T09:18:41.244Z,2.50
2018-11-21T09:21:10.818Z,2.40
2018-11-21T09:23:40.565Z,2.30
2018-11-21T09:26:10.433Z,2.30
2018-11-21T09:28:40.093Z,2.30
2018-11-21T09:31:09.730Z,2.50
2018-11-21T09:33:39.313Z,2.50
2018-11-21T09:36:08.975Z,2.50
2018-11-21T09:38:38.964Z,2.60
2018-11-21T09:41:08.673Z,2.50
2018-11-21T09:43:38.280Z,2.50
2018-11-21T09:46:07.924Z,2.60
2018-11-21T09:48:37.565Z,2.60
2018-11-21T09:51:07.315Z,2.70
2018-11-21T09:53:37.125Z,2.70
2018-11-21T09:56:07.003Z,2.70
2018-11-21T09:58:36.631Z,2.80
2018-11-21T10:01:42.568Z,2.70
2018-11-21T10:04:12.328Z,2.60
2018-11-21T10:06:43.799Z,2.60
2018-11-21T10:09:25.036Z,2.80
2018-11-21T10:11:54.830Z,2.70
2018-11-21T10:14:24.429Z,2.80
2018-11-21T10:16:54.071Z,2.80
2018-11-21T10:19:23.746Z,2.90
2018-11-21T10:21:53.426Z,2.80
2018-11-21T10:24:23.056Z,2.80
2018-11-21T10:26:52.990Z,2.80
2018-11-21T10:29:22.890Z,2.80
2018-11-21T10:31:52.516Z,2.80
2018-11-21T10:34:22.175Z,2.90
2018-11-21T10:36:51.815Z,3.10
2018-11-21T10:39:21.483Z,3.10
2018-11-21T10:41:51.195Z,3.10
2018-11-21T10:44:21.014Z,3.20
2018-11-21T10:46:50.746Z,3.20
2018-11-21T10:49:20.466Z,3.00
2018-11-21T10:51:50.167Z,2.80
2018-11-21T10:54:19.918Z,2.80
2018-11-21T10:56:49.524Z,2.80
2018-11-21T10:59:19.395Z,2.80
2018-11-21T11:02:06.994Z,2.90
2018-11-21T11:04:54.431Z,3.00
2018-11-21T11:07:41.769Z,2.80
2018-11-21T11:10:40.823Z,2.60
2018-11-21T11:13:35.392Z,2.70
2018-11-21T11:16:21.392Z,2.80
2018-11-21T11:19:08.779Z,2.60
2018-11-21T11:22:06.585Z,2.30
2018-11-21T11:24:53.763Z,2.40
2018-11-21T11:27:49.891Z,2.40
2018-11-21T11:30:53.922Z,2.40
2018-11-21T11:33:38.360Z,2.40
2018-11-21T11:36:39.160Z,2.30
2018-11-21T11:39:43.924Z,2.40
2018-11-21T11:42:29.906Z,2.50
2018-11-21T11:45:17.131Z,2.60
2018-11-21T11:48:04.728Z,2.60
2018-11-21T11:50:48.152Z,2.50
2018-11-21T11:53:36.988Z,2.60
2018-11-21T11:56:28.439Z,2.70
2018-11-21T11:59:17.327Z,2.80
2018-11-21T12:02:13.159Z,2.80
2018-11-21T12:05:04.450Z,2.90
2018-11-21T12:07:57.277Z,3.00
2018-11-21T12:10:45.997Z,3.10
2018-11-21T12:13:33.492Z,3.20
2018-11-21T12:16:29.011Z,3.20
2018-11-21T12:19:10.701Z,3.10
2018-11-21T12:22:05.267Z,2.90
2018-11-21T12:24:57.711Z,2.90
2018-11-21T12:27:45.048Z,3.00
2018-11-21T12:30:24.330Z,3.10
2018-11-21T12:33:30.349Z,3.00
2018-11-21T12:36:18.074Z,2.90
2018-11-21T12:39:18.509Z,2.90
2018-11-21T12:42:05.830Z,2.90
2018-11-21T12:45:06.680Z,3.00
2018-11-21T12:48:13.957Z,3.00
2018-11-21T12:50:57.292Z,3.10
2018-11-21T12:54:01.018Z,3.10
2018-11-21T12:56:49.937Z,3.00
2018-11-21T12:59:41.977Z,2.90
2018-11-21T13:02:34.754Z,2.90
2018-11-21T13:05:19.063Z,3.00
2018-11-21T13:08:10.700Z,2.90
2018-11-21T13:10:58.105Z,2.90
2018-11-21T13:13:58.807Z,2.70
2018-11-21T13:16:38.096Z,2.70
2018-11-21T13:19:25.749Z,2.70
2018-11-21T13:22:02.361Z,2.50
2018-11-21T13:24:48.081Z,2.50
2018-11-21T13:27:42.537Z,2.50
2018-11-21T13:30:50.375Z,2.50
2018-11-21T13:33:44.880Z,2.50
2018-11-21T13:36:48.767Z,2.50
2018-11-21T13:39:55.765Z,2.60
2018-11-21T13:42:50.273Z,2.60
2018-11-21T13:45:54.090Z,2.60
2018-11-21T13:48:37.588Z,2.50
2018-11-21T13:51:44.374Z,2.60
2018-11-21T13:54:35.887Z,2.60
2018-11-21T13:57:05.711Z,2.60
2018-11-21T13:59:35.512Z,2.60
2018-11-21T14:02:05.491Z,2.60
2018-11-21T14:04:35.233Z,2.50
2018-11-21T14:07:04.925Z,2.40
2018-11-21T14:09:34.603Z,2.50
2018-11-21T14:12:04.852Z,2.50
2018-11-21T14:14:34.646Z,2.50
2018-11-21T14:17:04.276Z,2.40
2018-11-21T14:19:34.222Z,2.40
2018-11-21T14:22:03.930Z,2.40
2018-11-21T14:24:33.584Z,2.40
2018-11-21T14:27:03.317Z,2.30
2018-11-21T14:29:33.052Z,2.30
2018-11-21T14:32:02.800Z,2.30
2018-11-21T14:34:32.491Z,2.40
2018-11-21T14:37:02.418Z,2.30
2018-11-21T14:39:31.983Z,2.10
2018-11-21T14:42:01.639Z,2.10
2018-11-21T14:44:31.351Z,2.10
2018-11-21T14:47:01.863Z,2.10
2018-11-21T14:49:31.820Z,2.20
2018-11-21T14:52:01.829Z,2.40
2018-11-21T14:54:31.458Z,2.30
2018-11-21T14:57:02.017Z,2.40
2018-11-21T14:59:31.704Z,2.40
2018-11-21T15:02:01.590Z,2.30
2018-11-21T15:04:31.603Z,2.30
2018-11-21T15:07:01.243Z,2.40
2018-11-21T15:09:30.913Z,2.40
2018-11-21T15:12:00.569Z,2.40
2018-11-21T15:14:30.199Z,2.40
2018-11-21T15:16:59.927Z,2.30
2018-11-21T15:19:29.619Z,2.20
2018-11-21T15:21:59.189Z,2.20
2018-11-21T15:24:28.782Z,2.30
2018-11-21T15:26:58.448Z,2.30
2018-11-21T15:29:28.106Z,2.40
2018-11-21T15:31:57.792Z,2.40
2018-11-21T15:34:27.599Z,2.30
2018-11-21T15:36:57.290Z,2.30
2018-11-21T15:39:27.075Z,2.20
2018-11-21T15:41:56.722Z,2.20
2018-11-21T15:44:26.381Z,2.20
2018-11-21T15:46:56.111Z,2.30
2018-11-21T15:49:25.964Z,2.40
2018-11-21T15:52:01.283Z,2.20
2018-11-21T15:54:25.300Z,2.20
2018-11-21T15:56:54.941Z,2.20
2018-11-21T15:59:24.549Z,2.20
2018-11-21T16:01:54.270Z,2.20
2018-11-21T16:04:24.272Z,2.10
